Time;durP1;ratioP1;P1;durP2;ratioP2;P2;SDS_P1;SDS_P2;PMS_P1;PMS_P2;Temp;Humidity;BMP_temperature;BMP_pressure;BME280_temperature;BME280_humidity;BME280_pressure;Samples;Min_cycle;Max_cycle;Signal;HPM_P1;HPM_P2
2021/04/18 00:01:38;;;;;;;18.35;9.27;;;6.30;99.90;;;;;;5016921;28;20049;-86
2021/04/18 00:04:06;;;;;;;12.32;9.05;;;6.30;99.90;;;;;;5005341;28;20056;-86
2021/04/18 00:06:39;;;;;;;13.52;8.85;;;6.30;99.90;;;;;;5011173;28;20042;-85
2021/04/18 00:09:11;;;;;;;15.23;8.60;;;6.20;99.90;;;;;;4997183;28;20045;-85
2021/04/18 00:11:38;;;;;;;14.30;8.63;;;6.20;99.90;;;;;;5016623;28;20045;-86
2021/04/18 00:14:06;;;;;;;10.50;8.82;;;6.20;99.90;;;;;;5010610;28;20085;-86
2021/04/18 00:16:33;;;;;;;14.35;9.13;;;6.20;99.90;;;;;;5020080;28;20037;-86
2021/04/18 00:19:00;;;;;;;14.82;8.05;;;6.20;99.90;;;;;;4998847;28;20041;-86
2021/04/18 00:21:27;;;;;;;14.95;8.32;;;6.10;99.90;;;;;;4998776;28;20045;-86
2021/04/18 00:23:54;;;;;;;13.27;8.65;;;6.10;99.90;;;;;;4997628;28;20371;-86
2021/04/18 00:26:20;;;;;;;14.02;7.93;;;6.10;99.90;;;;;;5014415;28;20045;-85
2021/04/18 00:28:47;;;;;;;18.30;8.32;;;6.00;99.90;;;;;;4999396;28;20050;-85
2021/04/18 00:31:13;;;;;;;13.52;7.97;;;6.00;99.90;;;;;;4998209;28;20044;-85
2021/04/18 00:33:40;;;;;;;13.35;7.47;;;6.00;99.90;;;;;;4999054;28;20052;-85
2021/04/18 00:36:16;;;;;;;15.57;8.25;;;6.00;99.90;;;;;;5015627;28;20397;-85
2021/04/18 00:38:43;;;;;;;15.85;7.78;;;5.90;99.90;;;;;;4996951;28;20042;-85
2021/04/18 00:41:09;;;;;;;12.00;7.57;;;5.90;99.90;;;;;;4997989;28;20136;-85
2021/04/18 00:43:44;;;;;;;13.98;7.45;;;5.90;99.90;;;;;;5000615;28;20045;-85
2021/04/18 00:46:12;;;;;;;12.25;8.07;;;5.90;99.90;;;;;;4998238;28;20045;-86
2021/04/18 00:48:44;;;;;;;10.80;7.57;;;5.90;99.90;;;;;;4998795;28;20061;-85
2021/04/18 00:51:14;;;;;;;15.70;7.88;;;5.80;99.90;;;;;;4998263;28;20292;-86
2021/04/18 00:53:42;;;;;;;16.63;8.10;;;5.80;99.90;;;;;;4996439;28;20045;-84
2021/04/18 00:56:09;;;;;;;18.63;8.20;;;5.80;99.90;;;;;;4997748;28;20049;-85
2021/04/18 00:58:37;;;;;;;13.23;8.15;;;5.80;99.90;;;;;;4998450;28;20053;-86
2021/04/18 01:01:05;;;;;;;14.57;7.47;;;5.80;99.90;;;;;;4997990;28;20042;-85
2021/04/18 01:03:32;;;;;;;16.20;7.10;;;5.70;99.90;;;;;;4998487;28;20433;-86
2021/04/18 01:06:00;;;;;;;11.93;7.47;;;5.70;99.90;;;;;;4998281;28;20132;-85
2021/04/18 01:08:27;;;;;;;14.80;7.72;;;5.70;99.90;;;;;;4995474;28;20060;-85
2021/04/18 01:10:53;;;;;;;19.23;7.88;;;5.70;99.90;;;;;;4998472;28;20044;-85
2021/04/18 01:13:20;;;;;;;13.65;7.25;;;5.70;99.90;;;;;;5001221;28;20141;-85
2021/04/18 01:15:47;;;;;;;15.32;7.70;;;5.70;99.90;;;;;;5001199;28;20042;-85
2021/04/18 01:18:14;;;;;;;19.25;7.22;;;5.70;99.90;;;;;;4997561;28;20473;-85
2021/04/18 01:20:40;;;;;;;11.05;7.18;;;5.60;99.90;;;;;;5014448;28;20049;-85
2021/04/18 01:23:07;;;;;;;13.98;7.07;;;5.60;99.90;;;;;;5012388;28;20516;-85
2021/04/18 01:25:36;;;;;;;14.23;7.53;;;5.60;99.90;;;;;;5029556;28;20049;-85
2021/04/18 01:28:03;;;;;;;11.68;6.68;;;5.60;99.90;;;;;;5010717;28;20045;-85
2021/04/18 01:30:30;;;;;;;14.80;8.05;;;5.60;99.90;;;;;;4997944;28;20393;-85
2021/04/18 01:32:59;;;;;;;19.75;7.85;;;5.60;99.90;;;;;;4996970;28;20049;-86
2021/04/18 01:35:27;;;;;;;11.43;7.00;;;5.60;99.90;;;;;;5012338;28;20226;-85
2021/04/18 01:37:54;;;;;;;17.58;7.65;;;5.50;99.90;;;;;;5015411;28;20049;-86
2021/04/18 01:40:22;;;;;;;14.35;7.60;;;5.50;99.90;;;;;;4997531;28;20046;-85
2021/04/18 01:42:49;;;;;;;14.40;6.43;;;5.50;99.90;;;;;;4997521;28;20473;-85
2021/04/18 01:45:18;;;;;;;11.55;6.50;;;5.50;99.90;;;;;;4997300;28;20041;-85
2021/04/18 01:47:45;;;;;;;12.80;6.70;;;5.50;99.90;;;;;;4995799;28;20378;-86
2021/04/18 01:50:17;;;;;;;10.77;6.05;;;5.50;99.90;;;;;;4999200;28;20057;-86
2021/04/18 01:52:45;;;;;;;10.05;6.20;;;5.50;99.90;;;;;;5000384;28;20049;-85
2021/04/18 01:55:12;;;;;;;10.80;6.20;;;5.50;99.90;;;;;;5016548;28;20049;-85
2021/04/18 01:57:39;;;;;;;15.23;6.65;;;5.40;99.90;;;;;;5016875;28;20473;-86
2021/04/18 02:00:07;;;;;;;14.20;6.50;;;5.40;99.90;;;;;;5033667;28;20045;-85
2021/04/18 02:02:34;;;;;;;11.75;6.35;;;5.40;99.90;;;;;;5017375;28;20150;-86
2021/04/18 02:05:01;;;;;;;9.48;6.03;;;5.40;99.90;;;;;;5018047;28;20057;-85
2021/04/18 02:07:27;;;;;;;11.95;6.63;;;5.40;99.90;;;;;;5024290;28;20052;-86
2021/04/18 02:09:54;;;;;;;17.02;6.82;;;5.40;99.90;;;;;;5016897;28;20049;-85
2021/04/18 02:12:20;;;;;;;12.75;6.75;;;5.40;99.90;;;;;;5033897;28;20052;-85
2021/04/18 02:14:47;;;;;;;16.00;6.70;;;5.30;99.90;;;;;;5014707;28;20046;-86
2021/04/18 02:17:13;;;;;;;16.13;6.97;;;5.30;99.90;;;;;;5015836;28;20057;-85
2021/04/18 02:19:40;;;;;;;11.45;6.07;;;5.30;99.90;;;;;;5016755;28;20395;-86
2021/04/18 02:22:07;;;;;;;12.18;6.18;;;5.30;99.90;;;;;;5016376;28;20049;-85
2021/04/18 02:24:33;;;;;;;10.85;6.35;;;5.20;99.90;;;;;;5016809;28;20489;-85
2021/04/18 02:27:00;;;;;;;16.55;7.03;;;5.20;99.90;;;;;;5015557;28;20507;-85
2021/04/18 02:29:26;;;;;;;12.68;6.40;;;5.20;99.90;;;;;;5012765;28;20049;-85
2021/04/18 02:31:55;;;;;;;11.65;5.88;;;5.20;99.90;;;;;;5000254;28;20041;-86
2021/04/18 02:34:22;;;;;;;13.43;7.03;;;5.20;99.90;;;;;;5019806;28;20492;-86
2021/04/18 02:36:48;;;;;;;12.23;6.30;;;5.20;99.90;;;;;;5033403;28;20045;-86
2021/04/18 02:39:15;;;;;;;9.38;5.55;;;5.10;99.90;;;;;;5031756;28;20051;-86
2021/04/18 02:41:41;;;;;;;15.05;5.93;;;5.10;99.90;;;;;;5014489;28;20485;-85
2021/04/18 02:44:08;;;;;;;10.07;5.70;;;5.10;99.90;;;;;;5031460;28;20041;-85
2021/04/18 02:46:35;;;;;;;10.95;6.18;;;5.10;99.90;;;;;;5019661;28;20045;-85
2021/04/18 02:49:02;;;;;;;12.65;5.97;;;5.10;99.90;;;;;;5016542;28;20052;-85
2021/04/18 02:51:30;;;;;;;13.40;6.40;;;5.10;99.90;;;;;;5016252;28;20045;-85
2021/04/18 02:54:00;;;;;;;10.23;5.78;;;5.10;99.90;;;;;;5015523;28;20056;-86
2021/04/18 02:56:27;;;;;;;11.73;5.40;;;5.00;99.90;;;;;;5013950;28;20046;-85
2021/04/18 02:58:54;;;;;;;11.10;5.40;;;5.00;99.90;;;;;;5016511;28;20053;-85
2021/04/18 03:01:21;;;;;;;11.95;6.03;;;5.00;99.90;;;;;;5033814;28;20460;-85
2021/04/18 03:03:48;;;;;;;16.17;5.75;;;5.00;99.90;;;;;;5016361;28;20045;-85
2021/04/18 03:06:15;;;;;;;9.80;5.22;;;5.00;99.90;;;;;;5034228;28;20086;-85
2021/04/18 03:08:42;;;;;;;12.20;6.18;;;5.00;99.90;;;;;;5018078;28;20049;-85
2021/04/18 03:11:09;;;;;;;12.25;5.72;;;4.90;99.90;;;;;;5019402;28;20500;-86
2021/04/18 03:13:36;;;;;;;11.68;5.20;;;4.90;99.90;;;;;;5020012;28;20064;-85
2021/04/18 03:16:03;;;;;;;10.10;5.47;;;4.90;99.90;;;;;;5020225;28;20041;-86
2021/04/18 03:18:30;;;;;;;14.48;5.35;;;4.90;99.90;;;;;;5021864;28;20464;-85
2021/04/18 03:20:57;;;;;;;10.63;5.75;;;4.90;99.90;;;;;;5035076;28;20041;-85
2021/04/18 03:23:23;;;;;;;13.90;5.43;;;4.90;99.90;;;;;;5036455;28;20045;-85
2021/04/18 03:25:50;;;;;;;7.78;5.65;;;4.80;99.90;;;;;;5020693;28;20046;-85
2021/04/18 03:28:16;;;;;;;8.95;5.00;;;4.80;99.90;;;;;;5019081;28;20472;-85
2021/04/18 03:30:43;;;;;;;8.10;5.00;;;4.80;99.90;;;;;;5019280;28;20048;-86
2021/04/18 03:33:10;;;;;;;12.88;5.32;;;4.80;99.90;;;;;;5019209;28;20059;-86
2021/04/18 03:35:37;;;;;;;9.75;5.22;;;4.80;99.90;;;;;;5017288;28;20041;-85
2021/04/18 03:38:04;;;;;;;11.65;5.50;;;4.80;99.90;;;;;;5036849;28;20050;-85
2021/04/18 03:40:30;;;;;;;10.32;4.95;;;4.80;99.90;;;;;;5036773;28;20045;-86
2021/04/18 03:42:57;;;;;;;11.18;5.97;;;4.80;99.90;;;;;;5019185;28;20049;-84
2021/04/18 03:45:24;;;;;;;10.48;5.45;;;4.70;99.90;;;;;;5021487;28;20401;-85
2021/04/18 03:47:50;;;;;;;11.85;5.07;;;4.70;99.90;;;;;;5035010;28;20064;-85
2021/04/18 03:50:17;;;;;;;10.30;4.90;;;4.70;99.90;;;;;;5035069;28;20095;-85
2021/04/18 03:52:45;;;;;;;10.27;4.47;;;4.70;99.90;;;;;;5018911;28;20049;-85
2021/04/18 03:55:12;;;;;;;11.18;5.10;;;4.70;99.90;;;;;;5024431;28;20048;-85
2021/04/18 03:57:38;;;;;;;9.70;5.45;;;4.70;99.90;;;;;;5021857;28;20502;-85
2021/04/18 04:00:06;;;;;;;8.75;4.78;;;4.70;99.90;;;;;;5020123;28;20071;-86
2021/04/18 04:02:33;;;;;;;9.88;5.38;;;4.60;99.90;;;;;;5016594;28;20041;-85
2021/04/18 04:05:00;;;;;;;8.15;5.00;;;4.70;99.90;;;;;;5049291;28;20496;-85
2021/04/18 04:07:28;;;;;;;11.52;5.03;;;4.60;99.90;;;;;;5028363;28;20491;-85
2021/04/18 04:09:54;;;;;;;13.02;5.15;;;4.60;99.90;;;;;;5027564;28;20042;-85
2021/04/18 04:12:22;;;;;;;9.20;4.28;;;4.60;99.90;;;;;;5017998;28;20051;-85
2021/04/18 04:14:48;;;;;;;10.55;4.97;;;4.60;99.90;;;;;;5016636;28;20042;-85
2021/04/18 04:17:14;;;;;;;9.05;4.93;;;4.60;99.90;;;;;;5017500;28;20049;-85
2021/04/18 04:19:41;;;;;;;9.88;5.00;;;4.60;99.90;;;;;;5018254;28;20041;-85
2021/04/18 04:22:08;;;;;;;10.27;4.78;;;4.60;99.90;;;;;;5035461;28;20049;-86
2021/04/18 04:24:34;;;;;;;11.20;4.70;;;4.50;99.90;;;;;;5018582;28;20373;-85
2021/04/18 04:27:01;;;;;;;8.82;4.90;;;4.50;99.90;;;;;;5017318;28;20052;-85
2021/04/18 04:29:27;;;;;;;8.38;5.10;;;4.50;99.90;;;;;;5035202;28;20041;-86
2021/04/18 04:31:54;;;;;;;7.93;4.97;;;4.50;99.90;;;;;;5018763;28;20380;-85
2021/04/18 04:34:20;;;;;;;7.60;4.85;;;4.50;99.90;;;;;;5035245;28;20037;-85
2021/04/18 04:36:47;;;;;;;7.97;4.20;;;4.50;99.90;;;;;;5021416;28;20128;-86
2021/04/18 04:39:14;;;;;;;7.13;4.32;;;4.40;99.90;;;;;;5018687;28;20052;-86
2021/04/18 04:41:40;;;;;;;10.48;4.88;;;4.40;99.90;;;;;;5019061;28;20046;-86
2021/04/18 04:44:08;;;;;;;6.90;4.43;;;4.40;99.90;;;;;;5017076;28;20053;-86
2021/04/18 04:46:35;;;;;;;6.30;4.15;;;4.40;99.90;;;;;;5017906;28;20494;-86
2021/04/18 04:49:01;;;;;;;9.02;4.63;;;4.40;99.90;;;;;;5022554;28;20042;-86
2021/04/18 04:51:28;;;;;;;7.13;4.07;;;4.40;99.90;;;;;;5017722;28;20049;-85
2021/04/18 04:53:54;;;;;;;12.65;4.38;;;4.40;99.90;;;;;;5004976;28;20062;-86
2021/04/18 04:56:21;;;;;;;9.32;4.32;;;4.40;99.90;;;;;;4996475;28;20049;-86
2021/04/18 04:58:47;;;;;;;7.75;4.32;;;4.40;99.90;;;;;;4998319;28;20068;-86
2021/04/18 05:01:14;;;;;;;7.18;4.55;;;4.40;99.90;;;;;;4997810;28;20432;-86
2021/04/18 05:03:40;;;;;;;9.20;4.50;;;4.40;99.90;;;;;;4998552;28;20042;-86
2021/04/18 05:06:08;;;;;;;6.93;4.18;;;4.40;99.90;;;;;;4997908;28;20057;-86
2021/04/18 05:08:34;;;;;;;9.23;4.57;;;4.40;99.90;;;;;;4995977;28;20050;-86
2021/04/18 05:11:01;;;;;;;6.70;3.42;;;4.40;99.90;;;;;;5018635;28;20050;-86
2021/04/18 05:13:27;;;;;;;6.85;4.30;;;4.40;99.90;;;;;;5007247;28;20041;-86
2021/04/18 05:15:54;;;;;;;9.63;4.35;;;4.30;99.90;;;;;;5009583;28;20042;-85
2021/04/18 05:18:20;;;;;;;8.50;4.22;;;4.30;99.90;;;;;;4997911;28;20060;-86
2021/04/18 05:20:47;;;;;;;7.03;4.25;;;4.30;99.90;;;;;;4996433;28;20449;-86
2021/04/18 05:23:14;;;;;;;9.52;3.80;;;4.30;99.90;;;;;;5001300;28;20053;-86
2021/04/18 05:25:40;;;;;;;7.85;4.32;;;4.30;99.90;;;;;;4998091;28;20053;-86
2021/04/18 05:28:07;;;;;;;6.32;4.07;;;4.30;99.90;;;;;;4997447;28;20046;-85
2021/04/18 05:30:34;;;;;;;6.63;4.30;;;4.30;99.90;;;;;;4997778;28;20126;-86
2021/04/18 05:33:07;;;;;;;11.93;4.00;;;4.30;99.90;;;;;;4996676;28;20049;-85
2021/04/18 05:35:33;;;;;;;7.05;3.90;;;4.30;99.90;;;;;;5016616;28;20053;-86
2021/04/18 05:38:00;;;;;;;7.05;4.18;;;4.30;99.90;;;;;;5015190;28;20382;-86
2021/04/18 05:40:26;;;;;;;6.47;4.00;;;4.30;99.90;;;;;;4997321;28;20040;-85
2021/04/18 05:42:55;;;;;;;9.65;4.18;;;4.30;99.90;;;;;;4998391;28;20140;-86
2021/04/18 05:45:22;;;;;;;7.32;3.80;;;4.30;99.90;;;;;;4997577;28;20061;-85
2021/04/18 05:47:48;;;;;;;8.48;4.43;;;4.40;99.90;;;;;;4995941;28;20049;-85
2021/04/18 05:50:15;;;;;;;12.32;4.15;;;4.40;99.90;;;;;;4996626;28;20052;-85
2021/04/18 05:52:44;;;;;;;8.07;3.92;;;4.40;99.90;;;;;;4999765;28;20045;-85
2021/04/18 05:55:11;;;;;;;8.63;4.03;;;4.40;99.90;;;;;;5024098;28;20484;-86
2021/04/18 05:57:37;;;;;;;8.10;4.35;;;4.50;99.90;;;;;;5034077;28;20052;-85
2021/04/18 06:00:05;;;;;;;7.88;4.03;;;4.50;99.90;;;;;;5050490;28;20404;-85
2021/04/18 06:02:31;;;;;;;5.32;3.78;;;4.60;99.90;;;;;;5047857;28;20362;-86
2021/04/18 06:04:58;;;;;;;7.57;4.13;;;4.60;99.90;;;;;;5022398;28;20080;-85
2021/04/18 06:07:25;;;;;;;8.02;4.40;;;4.60;99.90;;;;;;5016332;28;20045;-85
2021/04/18 06:09:52;;;;;;;7.18;4.70;;;4.70;99.90;;;;;;5034508;28;20053;-86
2021/04/18 06:12:18;;;;;;;6.55;4.18;;;4.80;99.90;;;;;;5016110;28;20041;-86
2021/04/18 06:14:45;;;;;;;6.40;3.70;;;4.80;99.90;;;;;;5015020;28;20055;-86
2021/04/18 06:17:11;;;;;;;8.68;4.15;;;4.90;99.90;;;;;;5015994;28;20052;-86
2021/04/18 06:19:38;;;;;;;7.47;3.88;;;5.00;99.90;;;;;;5016888;28;20112;-85
2021/04/18 06:22:04;;;;;;;6.35;4.00;;;5.00;99.90;;;;;;5016336;28;20497;-86
2021/04/18 06:24:31;;;;;;;8.38;4.18;;;5.10;99.90;;;;;;5016500;28;20045;-86
2021/04/18 06:26:57;;;;;;;6.22;4.05;;;5.20;99.90;;;;;;5015963;28;20037;-86
2021/04/18 06:29:24;;;;;;;6.90;3.90;;;5.20;99.90;;;;;;5014617;28;20049;-85
2021/04/18 06:31:50;;;;;;;7.43;3.63;;;5.30;99.90;;;;;;5016624;28;20087;-85
2021/04/18 06:34:22;;;;;;;9.38;4.95;;;5.40;99.90;;;;;;5036311;28;20051;-85
2021/04/18 06:36:52;;;;;;;5.18;3.60;;;5.50;99.90;;;;;;5037486;28;20037;-85
2021/04/18 06:39:18;;;;;;;9.00;3.90;;;5.50;99.90;;;;;;5016876;28;20050;-85
2021/04/18 06:41:53;;;;;;;6.25;3.70;;;5.70;99.90;;;;;;5019041;28;20136;-85
2021/04/18 06:44:21;;;;;;;7.60;3.55;;;5.80;99.90;;;;;;5042199;28;20049;-85
2021/04/18 06:46:52;;;;;;;9.45;3.85;;;5.80;99.90;;;;;;5032277;28;20049;-85
2021/04/18 06:49:19;;;;;;;5.40;3.42;;;5.90;99.90;;;;;;5018497;28;20492;-85
2021/04/18 06:51:46;;;;;;;7.63;4.28;;;6.00;99.90;;;;;;5022608;28;20049;-85
2021/04/18 06:54:12;;;;;;;6.20;3.38;;;6.10;99.90;;;;;;5026089;28;20056;-85
2021/04/18 06:56:39;;;;;;;5.63;3.63;;;6.30;99.90;;;;;;5029435;28;20040;-84
2021/04/18 06:59:05;;;;;;;5.53;3.40;;;6.40;99.90;;;;;;5028588;28;20056;-85
2021/04/18 07:01:34;;;;;;;9.15;4.30;;;6.50;99.90;;;;;;5030346;28;20063;-84
2021/04/18 07:04:07;;;;;;;;;;;6.60;99.90;;;;;;5028440;28;20053;-85
2021/04/18 07:06:43;;;;;;;5.53;3.72;;;6.60;99.90;;;;;;5046145;28;19944;-85
2021/04/18 07:09:11;;;;;;;5.95;3.58;;;6.80;99.90;;;;;;5031388;28;20135;-85
2021/04/18 07:11:54;;;;;;;5.78;3.55;;;6.90;99.90;;;;;;5024177;28;20060;-85
2021/04/18 07:14:31;;;;;;;7.32;3.28;;;7.00;99.90;;;;;;5029443;28;20052;-85
2021/04/18 07:17:06;;;;;;;7.65;3.67;;;7.10;99.90;;;;;;5045320;28;20048;-85
2021/04/18 07:19:34;;;;;;;6.43;3.35;;;7.20;99.90;;;;;;5029331;28;20132;-85
2021/04/18 07:22:01;;;;;;;6.03;3.33;;;7.30;99.90;;;;;;5025817;28;20048;-85
2021/04/18 07:24:29;;;;;;;7.57;4.03;;;7.50;99.90;;;;;;5021801;28;20048;-85
2021/04/18 07:27:01;;;;;;;8.52;3.53;;;7.60;99.90;;;;;;5025393;28;20053;-85
2021/04/18 07:29:30;;;;;;;7.63;3.90;;;7.80;99.90;;;;;;5031384;28;20045;-84
2021/04/18 07:31:58;;;;;;;7.38;3.58;;;8.00;99.90;;;;;;5040168;28;20057;-85
2021/04/18 07:34:36;;;;;;;7.22;3.42;;;8.10;99.90;;;;;;5048605;28;20048;-85
2021/04/18 07:37:11;;;;;;;7.05;3.88;;;8.30;99.90;;;;;;5025139;28;20074;-85
2021/04/18 07:39:58;;;;;;;7.75;4.05;;;8.50;99.90;;;;;;5022535;28;20042;-85
2021/04/18 07:42:29;;;;;;;8.20;3.78;;;8.70;99.90;;;;;;5046709;28;20049;-84
2021/04/18 07:44:57;;;;;;;7.28;4.10;;;8.80;99.90;;;;;;5048559;28;20056;-84
2021/04/18 07:47:25;;;;;;;7.68;3.42;;;8.90;99.80;;;;;;5048827;28;20056;-85
2021/04/18 07:49:57;;;;;;;6.30;3.58;;;9.10;99.70;;;;;;5028657;28;20140;-85
2021/04/18 07:52:25;;;;;;;10.80;3.88;;;9.30;99.60;;;;;;5022148;28;20175;-85
2021/04/18 07:54:53;;;;;;;11.30;3.83;;;9.40;99.20;;;;;;5024061;28;20510;-84
2021/04/18 07:57:24;;;;;;;11.00;3.90;;;9.50;99.10;;;;;;5035362;28;22398;-86
2021/04/18 07:59:51;;;;;;;9.00;3.50;;;9.60;98.90;;;;;;5029282;28;20052;-84
2021/04/18 08:02:21;;;;;;;6.90;3.83;;;9.70;98.80;;;;;;5032276;28;20041;-82
2021/04/18 08:04:51;;;;;;;8.85;4.00;;;9.80;98.70;;;;;;5040519;28;20133;-82
2021/04/18 08:07:18;;;;;;;8.07;3.97;;;9.90;98.60;;;;;;5031839;28;20392;-82
2021/04/18 08:09:44;;;;;;;6.10;3.75;;;10.00;98.40;;;;;;5047030;28;20060;-82
2021/04/18 08:12:11;;;;;;;9.60;4.00;;;10.10;98.20;;;;;;5042872;28;20503;-82
2021/04/18 08:14:42;;;;;;;7.43;3.70;;;10.20;98.10;;;;;;5028054;28;20053;-81
2021/04/18 08:17:11;;;;;;;6.28;3.78;;;10.30;98.00;;;;;;5030424;28;20045;-82
2021/04/18 08:19:53;;;;;;;7.40;3.70;;;10.40;97.90;;;;;;5030585;28;20045;-81
2021/04/18 08:22:20;;;;;;;8.38;3.60;;;10.50;97.70;;;;;;5030462;28;20048;-82
2021/04/18 08:24:46;;;;;;;5.88;3.38;;;10.60;97.50;;;;;;5031433;28;20053;-82
2021/04/18 08:27:13;;;;;;;5.93;3.55;;;10.70;97.10;;;;;;5013153;28;20056;-82
2021/04/18 08:30:04;;;;;;;6.75;3.42;;;10.80;97.20;;;;;;5047367;28;20037;-82
2021/04/18 08:32:42;;;;;;;5.78;3.33;;;10.90;96.70;;;;;;5042218;28;20045;-82
2021/04/18 08:35:16;;;;;;;6.47;3.13;;;11.00;96.20;;;;;;5040353;28;20056;-82
2021/04/18 08:37:42;;;;;;;5.78;2.80;;;11.10;95.80;;;;;;5022125;28;20045;-82
2021/04/18 08:40:09;;;;;;;9.68;3.53;;;11.20;95.60;;;;;;5040577;28;20072;-82
2021/04/18 08:42:37;;;;;;;5.68;3.25;;;11.30;95.30;;;;;;5052399;28;20049;-82
2021/04/18 08:45:05;;;;;;;7.13;3.38;;;11.30;94.90;;;;;;5019185;28;20037;-82
2021/04/18 08:47:33;;;;;;;5.37;2.93;;;11.40;94.80;;;;;;5048710;28;20419;-82
2021/04/18 08:50:10;;;;;;;6.57;2.95;;;11.50;94.60;;;;;;5034785;28;20052;-82
2021/04/18 08:52:37;;;;;;;7.75;3.28;;;11.60;94.20;;;;;;5033523;28;20056;-82
2021/04/18 08:55:12;;;;;;;6.95;3.20;;;11.70;93.80;;;;;;5048063;28;20045;-82
2021/04/18 08:57:39;;;;;;;5.90;2.80;;;11.90;93.70;;;;;;5047448;28;20424;-82
2021/04/18 09:00:07;;;;;;;7.32;3.05;;;12.00;93.70;;;;;;5046950;28;20439;-82
2021/04/18 09:02:34;;;;;;;7.40;3.30;;;12.10;93.10;;;;;;5049419;28;20057;-82
2021/04/18 09:05:03;;;;;;;3.88;3.00;;;12.20;92.30;;;;;;5050186;28;20087;-82
2021/04/18 09:07:33;;;;;;;5.78;2.78;;;12.30;92.10;;;;;;5030740;28;20049;-82
2021/04/18 09:10:05;;;;;;;6.50;2.50;;;12.40;91.60;;;;;;5050425;28;20476;-83
2021/04/18 09:12:32;;;;;;;6.68;2.90;;;12.50;91.40;;;;;;5033018;28;20104;-82
2021/04/18 09:15:00;;;;;;;7.95;2.88;;;12.60;90.60;;;;;;5031856;28;20052;-82
2021/04/18 09:17:29;;;;;;;5.18;3.10;;;12.70;90.00;;;;;;5033560;28;20041;-82
2021/04/18 09:20:01;;;;;;;5.97;2.80;;;12.80;89.20;;;;;;5030608;28;20052;-82
2021/04/18 09:22:32;;;;;;;5.63;2.80;;;12.90;89.00;;;;;;5048930;28;20446;-82
2021/04/18 09:25:09;;;;;;;8.88;3.35;;;13.00;88.60;;;;;;5050574;28;20045;-82
2021/04/18 09:27:49;;;;;;;6.47;2.75;;;13.10;88.50;;;;;;5032593;28;20056;-87
2021/04/18 09:30:22;;;;;;;6.32;3.10;;;13.20;89.40;;;;;;5032632;28;20048;-86
2021/04/18 09:33:02;;;;;;;6.28;2.80;;;13.30;88.20;;;;;;5041364;28;20127;-85
2021/04/18 09:35:31;;;;;;;6.43;2.63;;;13.40;88.70;;;;;;5038873;28;20052;-86
2021/04/18 09:38:00;;;;;;;4.70;2.53;;;13.60;88.20;;;;;;5035686;28;20053;-85
2021/04/18 09:40:35;;;;;;;5.43;2.90;;;13.60;85.80;;;;;;5032051;28;20044;-86
2021/04/18 09:43:05;;;;;;;4.70;2.45;;;13.60;84.40;;;;;;5031891;28;20128;-85
2021/04/18 09:45:34;;;;;;;7.70;2.78;;;13.70;83.70;;;;;;5032539;28;20128;-86
2021/04/18 09:48:15;;;;;;;4.70;2.80;;;13.70;82.90;;;;;;5026870;28;20128;-86
2021/04/18 09:50:43;;;;;;;9.98;3.15;;;13.80;82.10;;;;;;5026332;28;20037;-87
2021/04/18 09:53:18;;;;;;;5.00;2.53;;;13.90;82.30;;;;;;5028485;28;20132;-86
2021/04/18 09:55:54;;;;;;;5.82;2.53;;;13.90;82.40;;;;;;5029558;28;20046;-86
2021/04/18 09:58:31;;;;;;;5.15;2.72;;;14.00;81.40;;;;;;5024547;28;20051;-86
2021/04/18 10:00:58;;;;;;;6.43;2.50;;;14.10;81.40;;;;;;5026301;28;20057;-86
2021/04/18 10:03:41;;;;;;;5.53;2.75;;;14.20;80.90;;;;;;5023774;28;20041;-86
2021/04/18 10:06:09;;;;;;;5.63;2.38;;;14.20;78.80;;;;;;5024287;28;20057;-86
2021/04/18 10:08:37;;;;;;;6.68;2.63;;;14.30;79.70;;;;;;5023566;28;20124;-87
2021/04/18 10:11:07;;;;;;;5.88;2.95;;;14.30;77.50;;;;;;5022413;28;20504;-86
2021/04/18 10:13:44;;;;;;;6.40;2.50;;;14.20;76.90;;;;;;5043251;28;20049;-86
2021/04/18 10:16:21;;;;;;;4.53;2.40;;;14.20;76.50;;;;;;5026570;28;20483;-86
2021/04/18 10:19:18;;;;;;;5.20;2.30;;;14.20;77.50;;;;;;5027132;28;20052;-85
2021/04/18 10:22:04;;;;;;;5.43;2.50;;;14.30;77.10;;;;;;5029410;28;20048;-86
2021/04/18 10:24:34;;;;;;;6.60;2.28;;;14.40;77.50;;;;;;5026275;28;20049;-86
2021/04/18 10:27:03;;;;;;;4.15;2.40;;;14.60;76.50;;;;;;5042244;28;20107;-86
2021/04/18 10:29:30;;;;;;;7.07;2.75;;;14.60;75.90;;;;;;5030417;28;20045;-86
2021/04/18 10:31:56;;;;;;;5.50;2.58;;;14.60;75.30;;;;;;5028216;28;20052;-86
2021/04/18 10:34:24;;;;;;;3.80;2.25;;;14.70;75.00;;;;;;5028149;28;20103;-86
2021/04/18 10:36:50;;;;;;;3.03;1.77;;;14.80;74.80;;;;;;5029496;28;20494;-86
2021/04/18 10:39:18;;;;;;;4.75;2.42;;;14.90;74.70;;;;;;5029482;28;20054;-86
2021/04/18 10:41:46;;;;;;;3.40;1.95;;;15.00;73.50;;;;;;5029378;28;20041;-86
2021/04/18 10:44:16;;;;;;;5.78;2.20;;;15.00;72.90;;;;;;5027664;28;20462;-86
2021/04/18 10:46:44;;;;;;;2.50;1.85;;;15.10;72.60;;;;;;5032505;28;20594;-87
2021/04/18 10:49:11;;;;;;;3.65;1.90;;;15.10;72.10;;;;;;5038047;28;20103;-87
2021/04/18 10:51:38;;;;;;;3.72;2.00;;;15.10;71.90;;;;;;5027190;28;20052;-86
2021/04/18 10:54:04;;;;;;;3.80;2.08;;;15.20;72.00;;;;;;5043690;28;20047;-87
2021/04/18 10:56:31;;;;;;;2.83;1.50;;;15.20;71.20;;;;;;5030828;28;20053;-87
2021/04/18 10:58:58;;;;;;;3.60;1.80;;;15.30;70.00;;;;;;5028206;28;20046;-87
2021/04/18 11:01:25;;;;;;;3.83;1.92;;;15.30;66.10;;;;;;5028581;28;20511;-87
2021/04/18 11:03:53;;;;;;;3.45;1.92;;;15.00;64.80;;;;;;5024581;28;20064;-87
2021/04/18 11:06:20;;;;;;;2.65;1.58;;;14.90;65.30;;;;;;5030711;28;20436;-86
2021/04/18 11:08:46;;;;;;;3.47;1.50;;;15.00;66.50;;;;;;5030457;28;20216;-87
2021/04/18 11:11:13;;;;;;;4.47;1.80;;;15.00;66.30;;;;;;5024745;28;20487;-87
2021/04/18 11:13:40;;;;;;;3.08;1.98;;;15.00;65.20;;;;;;5025666;28;20081;-87
2021/04/18 11:16:07;;;;;;;4.32;1.90;;;14.90;64.10;;;;;;5029246;28;20048;-87
2021/04/18 11:18:34;;;;;;;3.08;1.73;;;14.90;64.30;;;;;;5022535;28;20132;-85
2021/04/18 11:21:01;;;;;;;3.40;1.67;;;14.90;65.10;;;;;;5030461;28;20079;-85
2021/04/18 11:23:28;;;;;;;4.82;2.10;;;15.00;65.90;;;;;;5025824;28;20059;-85
2021/04/18 11:25:55;;;;;;;4.68;1.70;;;15.10;66.40;;;;;;5023754;28;20503;-85
2021/04/18 11:28:21;;;;;;;4.75;1.60;;;15.30;67.40;;;;;;5039548;28;20061;-86
2021/04/18 11:30:48;;;;;;;5.05;1.77;;;15.40;67.20;;;;;;5022415;28;20049;-86
2021/04/18 11:33:14;;;;;;;4.22;1.50;;;15.50;66.20;;;;;;5026694;28;20038;-86
2021/04/18 11:35:41;;;;;;;2.58;1.50;;;15.60;65.20;;;;;;5026678;28;20042;-86
2021/04/18 11:38:07;;;;;;;2.88;1.33;;;15.60;65.40;;;;;;5025288;28;20049;-87
2021/04/18 11:40:35;;;;;;;2.40;1.52;;;15.70;64.80;;;;;;5034533;28;20045;-87
2021/04/18 11:43:03;;;;;;;2.45;1.50;;;15.70;64.10;;;;;;5034127;28;20060;-86
2021/04/18 11:45:29;;;;;;;3.80;1.85;;;15.50;61.30;;;;;;5027857;28;20068;-86
2021/04/18 11:47:57;;;;;;;4.30;1.70;;;15.20;61.60;;;;;;5027387;28;20382;-87
2021/04/18 11:50:24;;;;;;;4.80;1.90;;;15.00;61.90;;;;;;5031140;28;20044;-87
2021/04/18 11:52:52;;;;;;;4.05;1.80;;;15.00;62.40;;;;;;5026299;28;20060;-87
2021/04/18 11:55:20;;;;;;;1.85;1.30;;;15.00;63.00;;;;;;5048204;28;20048;-86
2021/04/18 11:57:47;;;;;;;7.13;4.35;;;15.10;63.30;;;;;;5034903;28;20412;-86
2021/04/18 12:00:14;;;;;;;10.50;8.85;;;15.20;64.00;;;;;;5033612;28;20057;-85
2021/04/18 12:02:43;;;;;;;4.80;3.42;;;15.30;65.00;;;;;;5043010;28;20055;-83
2021/04/18 12:05:14;;;;;;;3.28;1.75;;;15.30;64.40;;;;;;5037409;28;20168;-85
2021/04/18 12:07:41;;;;;;;3.15;1.50;;;15.40;64.20;;;;;;5028454;28;20107;-86
2021/04/18 12:10:09;;;;;;;3.10;1.60;;;15.40;63.50;;;;;;5033696;28;20071;-87
2021/04/18 12:12:36;;;;;;;2.30;1.40;;;15.40;63.20;;;;;;5033730;28;20483;-86
2021/04/18 12:15:03;;;;;;;3.78;1.70;;;15.50;64.00;;;;;;5036043;28;20132;-87
2021/04/18 12:17:29;;;;;;;4.60;1.70;;;15.70;64.30;;;;;;5033857;28;20041;-87
2021/04/18 12:20:02;;;;;;;6.03;3.58;;;15.70;62.80;;;;;;5036229;28;20049;-87
2021/04/18 12:22:29;;;;;;;1.48;1.10;;;15.80;62.70;;;;;;5036237;28;20041;-87
2021/04/18 12:24:55;;;;;;;3.78;1.50;;;15.80;62.20;;;;;;5035659;28;20151;-87
2021/04/18 12:27:22;;;;;;;1.77;1.30;;;15.70;59.60;;;;;;5035304;28;20045;-87
2021/04/18 12:29:48;;;;;;;4.30;2.08;;;15.70;60.40;;;;;;5034305;28;20049;-87
2021/04/18 12:32:14;;;;;;;5.72;4.22;;;15.70;61.30;;;;;;5033514;28;20385;-86
2021/04/18 12:34:41;;;;;;;5.00;1.70;;;15.80;62.20;;;;;;5035587;28;20061;-87
2021/04/18 12:37:08;;;;;;;2.75;1.40;;;15.90;62.60;;;;;;5031539;28;20115;-87
2021/04/18 12:39:34;;;;;;;4.25;1.52;;;16.00;61.50;;;;;;5030635;28;20055;-87
2021/04/18 12:42:02;;;;;;;4.10;1.67;;;15.90;60.40;;;;;;5049187;28;20052;-87
2021/04/18 12:44:29;;;;;;;2.65;1.40;;;15.90;59.60;;;;;;5030400;28;20064;-87
2021/04/18 12:46:55;;;;;;;3.45;1.38;;;15.80;58.90;;;;;;5034466;28;20053;-87
2021/04/18 12:49:22;;;;;;;2.50;1.50;;;15.70;58.80;;;;;;5037547;28;20469;-85
2021/04/18 12:51:49;;;;;;;3.35;1.48;;;15.70;58.90;;;;;;5032429;28;20052;-85
2021/04/18 12:54:16;;;;;;;2.80;1.58;;;15.70;59.70;;;;;;5031831;28;20099;-85
2021/04/18 12:56:42;;;;;;;4.85;1.63;;;15.80;60.20;;;;;;5026318;28;20073;-86